الصفحة الرئيسية
METAR-TAF:

METAR-TAF

مطار :

Soldotna, ألاسكا, الولايات المتحدة

دائرة عرض: 60-29N, خط طول: 151-02W, ارتفاع: 33 متر

مراقبة الطقس الحالي

تاريخ ووقت الإصدار 21 دقيقة قبل الساعة 19:56UTC
ريح 3 عقدةمن اتجاهات متغيرة
درجة الحرارة 9°درجة مئوية
الرطوبة 76%
ضغط 1016 hPa
الرؤية: 16.1 كم
غيوم قليلة على ارتفاع 5500 قدم
غيوم مفككة على ارتفاع 8000 قدم

METAR: PASX 291956Z AUTO VRB03KT 10SM FEW055 BKN080 09/05 A3001 RMK AO2 SLP167 T00940050

زمن: 12:17 (20:17 UTC)


TAF: مفقودة

أرصاد الطقس والتوقعات من أكثر من 4000 مطار (تقارير الطقس للمطار METAR والتنبؤ بالطقس بالمطارTAF).

المحطات المتاحة هي النقط الصفراء والحمراء على الخريطة.

حرك المؤشر فوق النقطة لمعرفة اسم المحطة.

ثم انقر لمعرفة أرصاد وتوقعات الطقس.

لتغيير الخارطة: اضغط على الأزرار الخضراء مع رمز الصليب الأسود للتكبير. على الزر الأخضر مع شرطة للتصغير، أو على الأسهم الخضراء للخرائط المجاورة.


METAR-TAF: